createdAt,value
2023-05-13T00:01:38.996Z,12.20
2023-05-13T00:04:07.238Z,12.20
2023-05-13T00:06:36.138Z,12.20
2023-05-13T00:09:03.835Z,12.10
2023-05-13T00:11:30.853Z,12.10
2023-05-13T00:13:57.919Z,12.20
2023-05-13T00:16:27.940Z,12.10
2023-05-13T00:18:56.096Z,12.10
2023-05-13T00:21:23.910Z,12.10
2023-05-13T00:23:51.009Z,12.00
2023-05-13T00:26:18.095Z,12.00
2023-05-13T00:28:45.133Z,11.90
2023-05-13T00:31:12.266Z,11.90
2023-05-13T00:33:39.324Z,11.90
2023-05-13T00:36:07.783Z,11.90
2023-05-13T00:38:34.759Z,11.80
2023-05-13T00:41:03.154Z,11.80
2023-05-13T00:45:58.894Z,11.80
2023-05-13T00:48:26.199Z,11.70
2023-05-13T00:50:53.110Z,11.70
2023-05-13T00:53:20.284Z,11.60
2023-05-13T00:55:47.444Z,11.60
2023-05-13T00:58:14.672Z,11.60
2023-05-13T01:01:27.051Z,11.50
2023-05-13T01:04:24.745Z,11.50
2023-05-13T01:06:54.747Z,11.50
2023-05-13T01:09:28.933Z,11.40
2023-05-13T01:11:58.847Z,11.30
2023-05-13T01:14:42.584Z,11.30
2023-05-13T01:17:19.017Z,11.20
2023-05-13T01:19:53.104Z,11.20
2023-05-13T01:22:20.188Z,11.20
2023-05-13T01:24:47.230Z,11.20
2023-05-13T01:27:14.812Z,11.20
2023-05-13T01:32:11.163Z,11.10
2023-05-13T01:34:40.861Z,11.10
2023-05-13T01:37:07.989Z,11.10
2023-05-13T01:39:38.474Z,13.10
2023-05-13T01:42:05.929Z,11.00
2023-05-13T01:44:33.011Z,10.90
2023-05-13T01:47:00.139Z,11.70
2023-05-13T01:49:27.147Z,10.90
2023-05-13T01:51:54.140Z,10.90
2023-05-13T01:54:21.127Z,10.70
2023-05-13T01:56:48.129Z,10.70
2023-05-13T01:59:15.181Z,10.70
2023-05-13T02:04:09.840Z,10.60
2023-05-13T02:06:36.809Z,10.60
2023-05-13T02:09:03.872Z,10.60
2023-05-13T02:11:30.923Z,10.50
2023-05-13T02:13:57.841Z,10.50
2023-05-13T02:16:25.034Z,10.50
2023-05-13T02:18:52.097Z,10.40
2023-05-13T02:21:19.127Z,10.40
2023-05-13T02:23:46.137Z,10.40
2023-05-13T02:26:13.216Z,10.40
2023-05-13T02:31:07.725Z,10.30
2023-05-13T02:33:34.675Z,10.20
2023-05-13T02:36:01.673Z,10.20
2023-05-13T02:40:56.305Z,10.20
2023-05-13T02:45:51.921Z,10.20
2023-05-13T02:48:19.168Z,10.00
2023-05-13T02:50:46.219Z,10.00
2023-05-13T02:53:13.231Z,10.00
2023-05-13T02:55:40.312Z,10.00
2023-05-13T02:58:09.176Z,10.00
2023-05-13T03:00:36.211Z,10.00
2023-05-13T03:03:03.336Z,10.00
2023-05-13T03:05:30.327Z,10.00
2023-05-13T03:07:58.038Z,9.90
2023-05-13T03:10:25.106Z,10.00
2023-05-13T03:12:52.095Z,10.00
2023-05-13T03:15:19.422Z,10.00
2023-05-13T03:17:46.410Z,10.00
2023-05-13T03:20:13.549Z,9.90
2023-05-13T04:02:06.486Z,9.70
2023-05-13T04:04:33.615Z,9.70
2023-05-13T04:11:55.407Z,10.00
2023-05-13T04:14:22.384Z,10.00
2023-05-13T04:16:49.418Z,10.00
2023-05-13T04:26:41.363Z,10.10
2023-05-13T04:29:18.206Z,10.20
2023-05-13T04:36:40.789Z,10.10
2023-05-13T05:20:55.962Z,10.90
2023-05-13T05:25:57.796Z,11.00
2023-05-13T05:30:58.914Z,11.10
2023-05-13T05:45:44.769Z,11.60
2023-05-13T05:48:11.834Z,11.80
2023-05-13T05:50:39.466Z,11.90
2023-05-13T05:58:05.654Z,12.00
2023-05-13T06:03:03.171Z,12.00
2023-05-13T06:05:32.938Z,12.10
2023-05-13T06:07:59.924Z,12.20
2023-05-13T06:12:54.313Z,12.30
2023-05-13T06:17:48.665Z,12.30
2023-05-13T06:22:43.153Z,12.60
2023-05-13T06:25:10.893Z,12.60
2023-05-13T06:30:06.606Z,13.00
2023-05-13T06:32:33.858Z,13.20
2023-05-13T06:35:00.978Z,13.30
2023-05-13T06:37:28.179Z,13.50
2023-05-13T06:42:22.659Z,13.50
2023-05-13T06:44:49.976Z,13.60
2023-05-13T06:47:17.017Z,13.70
2023-05-13T06:52:11.780Z,13.80
2023-05-13T06:54:39.288Z,13.90
2023-05-13T06:57:07.443Z,14.10
2023-05-13T06:59:35.758Z,14.10
2023-05-13T07:02:02.950Z,14.20
2023-05-13T07:06:57.876Z,14.30
2023-05-13T07:09:25.239Z,14.50
2023-05-13T07:11:52.494Z,14.70
2023-05-13T07:14:20.082Z,14.80
2023-05-13T07:16:47.129Z,14.90
2023-05-13T07:19:14.377Z,14.80
2023-05-13T07:21:41.427Z,14.60
2023-05-13T07:24:11.121Z,14.60
2023-05-13T07:26:38.909Z,14.80
2023-05-13T07:31:33.529Z,14.70
2023-05-13T07:34:00.512Z,14.70
2023-05-13T07:38:56.236Z,14.90
2023-05-13T07:41:23.315Z,14.90
2023-05-13T07:43:50.321Z,15.30
2023-05-13T07:46:17.288Z,15.30
2023-05-13T07:48:44.389Z,15.80
2023-05-13T07:53:38.796Z,15.60
2023-05-13T07:56:06.027Z,15.40
2023-05-13T08:01:00.771Z,15.40
2023-05-13T08:05:55.757Z,16.00
2023-05-13T08:08:22.780Z,16.10
2023-05-13T08:10:49.961Z,16.00
2023-05-13T08:13:17.218Z,16.00
2023-05-13T08:15:44.327Z,16.10
2023-05-13T08:18:15.050Z,16.10
2023-05-13T08:23:09.675Z,16.20
2023-05-13T08:25:36.737Z,16.20
2023-05-13T08:28:03.885Z,16.20
2023-05-13T08:30:31.095Z,16.80
2023-05-13T08:32:58.134Z,16.80
2023-05-13T08:37:53.171Z,17.50
2023-05-13T08:40:21.267Z,17.30
2023-05-13T08:42:51.085Z,16.80
2023-05-13T08:45:21.743Z,17.20
2023-05-13T08:47:57.166Z,17.60
2023-05-13T08:50:25.879Z,17.70
2023-05-13T08:52:54.269Z,17.40
2023-05-13T08:55:22.979Z,17.40
2023-05-13T08:57:51.557Z,17.40
2023-05-13T09:00:21.209Z,17.90
2023-05-13T09:02:50.703Z,17.50
2023-05-13T09:05:18.559Z,17.50
2023-05-13T09:07:45.940Z,17.60
2023-05-13T09:10:12.958Z,18.40
2023-05-13T09:12:51.907Z,18.40
2023-05-13T09:15:25.183Z,18.10
2023-05-13T09:18:04.708Z,18.10
2023-05-13T09:20:33.189Z,18.40
2023-05-13T09:23:13.183Z,18.40
2023-05-13T09:25:40.635Z,18.50
2023-05-13T09:28:08.766Z,18.10
2023-05-13T09:30:40.405Z,18.10
2023-05-13T09:33:21.719Z,18.60
2023-05-13T09:35:53.517Z,18.70
2023-05-13T09:38:29.172Z,18.70
2023-05-13T09:41:03.141Z,18.60
2023-05-13T09:43:34.212Z,18.60
2023-05-13T09:46:03.718Z,18.70
2023-05-13T09:48:34.153Z,18.80
2023-05-13T09:51:02.329Z,18.80
2023-05-13T09:53:29.648Z,19.10
2023-05-13T09:55:58.748Z,19.10
2023-05-13T09:58:29.454Z,19.60
2023-05-13T10:00:58.079Z,19.80
2023-05-13T10:03:28.737Z,19.80
2023-05-13T10:05:57.493Z,19.60
2023-05-13T10:08:27.795Z,19.80
2023-05-13T10:10:56.403Z,19.60
2023-05-13T10:13:25.500Z,19.80
2023-05-13T10:15:55.544Z,20.00
2023-05-13T10:18:29.176Z,19.90
2023-05-13T10:25:54.876Z,20.50
2023-05-13T10:39:32.398Z,21.20
2023-05-13T10:42:55.445Z,21.30
2023-05-13T10:45:27.694Z,22.00
2023-05-13T10:47:57.003Z,21.40
2023-05-13T10:50:25.480Z,21.40
2023-05-13T10:52:58.378Z,21.80
2023-05-13T10:55:27.542Z,21.80
2023-05-13T10:58:17.120Z,21.70
2023-05-13T11:00:45.829Z,22.00
2023-05-13T11:03:29.568Z,21.80
2023-05-13T11:06:20.142Z,21.50
2023-05-13T11:08:51.002Z,21.60
2023-05-13T11:11:36.232Z,22.00
2023-05-13T11:14:17.814Z,22.40
2023-05-13T11:17:04.539Z,22.20
2023-05-13T11:19:48.934Z,21.90
2023-05-13T11:22:22.015Z,21.80
2023-05-13T11:25:09.700Z,22.70
2023-05-13T11:27:41.721Z,23.10
2023-05-13T11:30:29.366Z,22.90
2023-05-13T11:32:58.584Z,22.40
2023-05-13T11:35:28.912Z,21.60
2023-05-13T11:38:00.085Z,22.00
2023-05-13T11:40:35.464Z,22.50
2023-05-13T11:43:05.155Z,22.70
2023-05-13T11:45:39.750Z,22.50
2023-05-13T11:48:22.453Z,22.70
2023-05-13T11:50:52.188Z,22.50
2023-05-13T11:53:23.177Z,21.80
2023-05-13T11:55:50.650Z,22.30
2023-05-13T11:58:17.776Z,22.40
2023-05-13T12:00:46.657Z,22.20
2023-05-13T12:05:46.862Z,23.10
2023-05-13T12:08:13.965Z,22.20
2023-05-13T12:10:45.258Z,22.30
2023-05-13T12:13:13.146Z,23.00
2023-05-13T12:15:41.724Z,22.50
2023-05-13T12:20:37.837Z,22.00
2023-05-13T12:23:06.432Z,21.90
2023-05-13T12:25:51.466Z,21.40
2023-05-13T12:30:53.670Z,21.20
2023-05-13T12:33:42.581Z,20.80
2023-05-13T12:36:32.139Z,20.40
2023-05-13T12:39:05.532Z,19.80
2023-05-13T12:41:35.736Z,19.80
2023-05-13T12:44:15.939Z,19.70
2023-05-13T12:47:01.367Z,19.90
2023-05-13T12:49:28.577Z,20.20
2023-05-13T12:51:56.925Z,20.20
2023-05-13T12:54:24.047Z,20.40
2023-05-13T12:56:52.117Z,20.30
2023-05-13T12:59:19.310Z,20.20
2023-05-13T13:01:48.346Z,20.20
2023-05-13T13:04:16.968Z,20.20
2023-05-13T13:06:45.673Z,20.70
2023-05-13T13:14:08.367Z,21.10
2023-05-13T13:21:33.794Z,21.60
2023-05-13T13:24:01.052Z,21.40
2023-05-13T13:28:56.482Z,21.70
2023-05-13T13:31:23.462Z,21.70
2023-05-13T13:33:50.468Z,22.30
2023-05-13T13:41:12.824Z,21.70
2023-05-13T13:43:39.852Z,21.50
2023-05-13T13:46:08.689Z,21.40
2023-05-13T13:51:04.598Z,21.30
2023-05-13T13:53:31.651Z,22.00
2023-05-13T14:05:50.247Z,21.50
2023-05-13T14:13:12.565Z,21.80
2023-05-13T14:21:06.595Z,21.90
2023-05-13T14:26:01.131Z,22.40
2023-05-13T15:02:54.890Z,17.60
2023-05-13T15:15:12.510Z,17.20
2023-05-13T15:20:08.114Z,16.90
2023-05-13T15:25:02.613Z,17.10
2023-05-13T15:52:07.146Z,18.20
2023-05-13T15:54:34.734Z,17.50
2023-05-13T15:59:29.035Z,17.30
2023-05-13T16:01:56.151Z,17.10
2023-05-13T16:04:23.236Z,17.20
2023-05-13T16:06:50.328Z,17.00
2023-05-13T16:09:17.560Z,17.00
2023-05-13T16:14:12.713Z,17.20
2023-05-13T16:16:40.035Z,17.00
2023-05-13T16:19:08.624Z,17.10
2023-05-13T16:21:43.109Z,17.30
2023-05-13T16:24:10.393Z,17.90
2023-05-13T16:26:37.559Z,18.70
2023-05-13T16:29:04.952Z,19.10
2023-05-13T16:31:32.242Z,19.10
2023-05-13T16:33:59.175Z,19.70
2023-05-13T16:36:26.914Z,19.70
2023-05-13T16:38:53.977Z,20.10
2023-05-13T16:46:17.543Z,19.10
2023-05-13T16:48:44.872Z,18.80
2023-05-13T16:51:11.902Z,18.50
2023-05-13T16:53:38.938Z,18.50
2023-05-13T16:56:06.234Z,18.40
2023-05-13T16:58:33.150Z,18.30
2023-05-13T17:01:01.118Z,18.50
2023-05-13T17:39:21.105Z,17.00
2023-05-13T17:44:16.000Z,16.70
2023-05-13T17:59:09.850Z,16.80
2023-05-13T18:16:23.770Z,16.00
2023-05-13T18:28:45.058Z,15.80
2023-05-13T18:36:10.021Z,15.70
2023-05-13T18:41:06.094Z,15.80
2023-05-13T18:43:33.355Z,15.70
2023-05-13T19:35:16.897Z,15.00
2023-05-13T19:45:07.754Z,14.80
2023-05-13T19:59:57.081Z,14.80
2023-05-13T20:07:19.179Z,14.60
2023-05-13T20:12:13.762Z,14.50
2023-05-13T20:14:49.464Z,14.60
2023-05-13T20:17:19.773Z,14.40
2023-05-13T20:19:48.725Z,14.60
2023-05-13T20:22:18.069Z,14.60
2023-05-13T20:24:49.106Z,14.60
2023-05-13T20:27:17.669Z,14.60
2023-05-13T20:29:47.958Z,14.60
2023-05-13T20:32:24.623Z,14.60
2023-05-13T20:34:52.858Z,14.70
2023-05-13T20:44:48.962Z,14.50
2023-05-13T20:52:11.620Z,14.40
2023-05-13T21:06:57.434Z,14.30
2023-05-13T21:09:24.520Z,14.30
2023-05-13T21:19:24.941Z,14.20
2023-05-13T21:24:20.020Z,14.10
2023-05-13T21:34:14.105Z,14.00
2023-05-13T21:39:10.380Z,13.90
2023-05-13T21:58:50.710Z,13.60
2023-05-13T22:06:12.978Z,13.60
2023-05-13T22:08:40.143Z,14.00
2023-05-13T22:11:07.483Z,13.60
2023-05-13T22:20:58.813Z,13.60
2023-05-13T22:23:26.061Z,13.50
2023-05-13T22:28:20.625Z,13.50
2023-05-13T22:33:16.441Z,13.50
2023-05-13T22:35:43.606Z,13.30
2023-05-13T22:38:10.750Z,13.40
2023-05-13T22:43:05.260Z,13.40
2023-05-13T22:50:27.293Z,13.60
2023-05-13T22:52:54.263Z,13.40
2023-05-13T23:00:16.832Z,13.20
2023-05-13T23:02:43.908Z,13.20
2023-05-13T23:07:38.530Z,13.10
2023-05-13T23:10:06.202Z,13.20
2023-05-13T23:12:33.561Z,13.10
2023-05-13T23:24:50.397Z,12.70
2023-05-13T23:27:17.385Z,12.70
2023-05-13T23:29:44.492Z,12.70
2023-05-13T23:37:06.238Z,12.70
2023-05-13T23:42:00.638Z,12.60
2023-05-13T23:44:27.621Z,12.50
2023-05-13T23:46:54.635Z,12.50
2023-05-13T23:49:21.604Z,12.40
2023-05-13T23:54:19.717Z,12.40
